Time;durP1;ratioP1;P1;durP2;ratioP2;P2;SDS_P1;SDS_P2;PMS_P1;PMS_P2;Temp;Humidity;BMP_temperature;BMP_pressure;BME280_temperature;BME280_humidity;BME280_pressure;Samples;Min_cycle;Max_cycle;Signal;HPM_P1;HPM_P2
2023/06/20 00:01:26;;;;;;;8.30;7.50;;;;;;;;;;10254940;28;20451;-74
2023/06/20 00:06:26;;;;;;;8.20;7.40;;;;;;;;;;10245074;28;20146;-76
2023/06/20 00:11:26;;;;;;;7.77;6.97;;;;;;;;;;10263412;28;20398;-75
2023/06/20 00:16:27;;;;;;;8.30;7.50;;;;;;;;;;10265978;28;20046;-74
2023/06/20 00:21:27;;;;;;;8.00;7.20;;;;;;;;;;10265291;28;20129;-75
2023/06/20 00:26:27;;;;;;;7.93;7.13;;;;;;;;;;10256511;28;20581;-74
2023/06/20 00:31:28;;;;;;;9.20;8.30;;;;;;;;;;10267157;28;20050;-74
2023/06/20 00:36:29;;;;;;;8.43;7.63;;;;;;;;;;10266764;28;20051;-75
2023/06/20 00:41:31;;;;;;;8.27;7.47;;;;;;;;;;10265021;28;20051;-75
2023/06/20 00:46:33;;;;;;;8.50;7.68;;;;;;;;;;10265226;28;20047;-75
2023/06/20 00:51:34;;;;;;;8.73;7.90;;;;;;;;;;10254679;28;20102;-74
2023/06/20 00:56:34;;;;;;;8.85;7.97;;;;;;;;;;10252266;28;20055;-74
2023/06/20 01:07:03;;;;;;;9.18;8.07;;;;;;;;;;10744489;23;20375;-76
2023/06/20 01:12:07;;;;;;;8.98;8.18;;;;;;;;;;10263120;28;20038;-75
2023/06/20 01:17:43;;;;;;;8.60;7.80;;;;;;;;;;10261865;28;20110;-78
2023/06/20 01:23:03;;;;;;;9.18;8.05;;;;;;;;;;10188491;28;20081;-76
2023/06/20 01:28:11;;;;;;;8.40;7.60;;;;;;;;;;10255940;28;21273;-77
2023/06/20 01:33:14;;;;;;;8.90;7.88;;;;;;;;;;10259978;28;20125;-77
2023/06/20 01:38:15;;;;;;;9.48;8.57;;;;;;;;;;10265140;28;20042;-78
2023/06/20 01:43:20;;;;;;;9.73;8.60;;;;;;;;;;10254378;28;20624;-75
2023/06/20 01:48:23;;;;;;;8.80;8.00;;;;;;;;;;10260333;28;20477;-75
2023/06/20 01:53:24;;;;;;;9.33;8.43;;;;;;;;;;10262710;28;20046;-75
2023/06/20 01:58:25;;;;;;;9.88;8.60;;;;;;;;;;10257157;28;20754;-77
2023/06/20 02:03:28;;;;;;;9.75;8.13;;;;;;;;;;10263478;28;20050;-74
2023/06/20 02:08:32;;;;;;;9.50;8.63;;;;;;;;;;10259008;28;20063;-75
2023/06/20 02:13:34;;;;;;;9.43;8.45;;;;;;;;;;10258658;28;20094;-76
2023/06/20 02:18:35;;;;;;;9.55;8.60;;;;;;;;;;10255082;28;20125;-74
2023/06/20 02:23:37;;;;;;;9.27;8.38;;;;;;;;;;10261747;28;20509;-74
2023/06/20 02:28:40;;;;;;;9.60;8.70;;;;;;;;;;10260199;28;20397;-74
2023/06/20 02:33:41;;;;;;;9.10;8.20;;;;;;;;;;10258687;28;20054;-75
2023/06/20 02:38:41;;;;;;;9.38;8.30;;;;;;;;;;10263180;28;20490;-75
2023/06/20 02:43:43;;;;;;;9.63;8.67;;;;;;;;;;10256298;28;20047;-73
2023/06/20 02:48:52;;;;;;;9.30;8.40;;;;;;;;;;10257752;28;20545;-74
2023/06/20 02:54:16;;;;;;;10.07;8.93;;;;;;;;;;10261646;28;20573;-77
2023/06/20 02:59:17;;;;;;;9.20;8.30;;;;;;;;;;10256411;28;20042;-74
2023/06/20 03:04:18;;;;;;;11.05;8.77;;;;;;;;;;10261238;28;20046;-75
2023/06/20 03:09:19;;;;;;;9.88;8.85;;;;;;;;;;10254415;28;20054;-74
2023/06/20 03:14:22;;;;;;;10.38;9.38;;;;;;;;;;10260004;28;20050;-76
2023/06/20 03:19:25;;;;;;;10.43;9.20;;;;;;;;;;10260971;28;20039;-76
2023/06/20 03:24:26;;;;;;;10.15;9.05;;;;;;;;;;10258262;28;20414;-75
2023/06/20 03:29:28;;;;;;;10.43;9.32;;;;;;;;;;10255530;28;20223;-76
2023/06/20 03:34:29;;;;;;;10.05;8.98;;;;;;;;;;10261852;28;20161;-75
2023/06/20 03:39:30;;;;;;;11.03;9.87;;;;;;;;;;10261692;28;20086;-77
2023/06/20 03:44:31;;;;;;;11.73;10.52;;;;;;;;;;10267036;28;20306;-77
2023/06/20 03:49:32;;;;;;;12.63;10.68;;;;;;;;;;10265153;28;20051;-76
2023/06/20 03:54:34;;;;;;;11.73;10.20;;;;;;;;;;10266184;28;20105;-76
2023/06/20 03:59:35;;;;;;;;;;;;;;;;;;10267542;28;20505;-74
2023/06/20 04:04:37;;;;;;;12.07;10.63;;;;;;;;;;10264318;28;19928;-75
2023/06/20 04:09:37;;;;;;;11.60;10.50;;;;;;;;;;10252001;28;20067;-73
2023/06/20 04:14:37;;;;;;;12.20;10.97;;;;;;;;;;10264193;28;20052;-75
2023/06/20 04:19:38;;;;;;;13.93;12.53;;;;;;;;;;10262086;28;20439;-77
2023/06/20 04:24:38;;;;;;;13.17;11.77;;;;;;;;;;10270868;28;20042;-74
2023/06/20 04:29:38;;;;;;;13.80;11.55;;;;;;;;;;10265985;28;20063;-74
2023/06/20 04:34:39;;;;;;;13.80;12.40;;;;;;;;;;10261388;28;20054;-76
2023/06/20 04:39:39;;;;;;;14.10;12.60;;;;;;;;;;10265261;28;20047;-75
2023/06/20 04:44:40;;;;;;;13.40;12.00;;;;;;;;;;10265353;28;20832;-75
2023/06/20 04:49:40;;;;;;;15.13;12.40;;;;;;;;;;10263105;28;20069;-75
2023/06/20 04:54:42;;;;;;;15.20;13.60;;;;;;;;;;10263187;28;20054;-75
2023/06/20 04:59:45;;;;;;;14.40;12.32;;;;;;;;;;10264650;28;20077;-76
2023/06/20 05:04:45;;;;;;;16.38;13.43;;;;;;;;;;10261565;28;20054;-77
2023/06/20 05:09:45;;;;;;;15.57;13.97;;;;;;;;;;10263452;28;20861;-75
2023/06/20 05:14:46;;;;;;;15.90;13.57;;;;;;;;;;10258901;28;20314;-75
2023/06/20 05:19:46;;;;;;;15.33;13.73;;;;;;;;;;10263875;28;20174;-74
2023/06/20 05:24:47;;;;;;;15.93;13.47;;;;;;;;;;10264454;28;20554;-75
2023/06/20 05:29:48;;;;;;;14.18;12.70;;;;;;;;;;10261154;28;20062;-75
2023/06/20 05:34:48;;;;;;;14.50;12.97;;;;;;;;;;10261434;28;20043;-75
2023/06/20 05:39:48;;;;;;;14.00;11.90;;;;;;;;;;10262586;28;20282;-75
2023/06/20 05:44:49;;;;;;;13.17;11.80;;;;;;;;;;10258372;28;20289;-79
2023/06/20 05:49:49;;;;;;;14.32;12.88;;;;;;;;;;10265036;28;20055;-82
2023/06/20 05:54:53;;;;;;;13.02;11.73;;;;;;;;;;10260828;28;20106;-76
2023/06/20 05:59:53;;;;;;;13.27;11.18;;;;;;;;;;10261885;28;20039;-77
2023/06/20 06:04:54;;;;;;;12.77;11.47;;;;;;;;;;10264052;28;20052;-80
2023/06/20 06:09:54;;;;;;;13.00;11.60;;;;;;;;;;10273187;28;20054;-78
2023/06/20 06:14:56;;;;;;;13.50;12.13;;;;;;;;;;10258913;28;20062;-77
2023/06/20 06:19:56;;;;;;;14.33;12.93;;;;;;;;;;10261401;28;20051;-75
2023/06/20 06:24:57;;;;;;;13.77;12.38;;;;;;;;;;10261091;28;20093;-76
2023/06/20 06:29:58;;;;;;;13.97;12.57;;;;;;;;;;10257727;28;20063;-76
2023/06/20 06:34:59;;;;;;;13.30;11.93;;;;;;;;;;10257424;28;20043;-75
2023/06/20 06:39:59;;;;;;;13.02;11.75;;;;;;;;;;10260323;28;20038;-75
2023/06/20 06:45:00;;;;;;;14.45;12.25;;;;;;;;;;10262894;28;20061;-75
2023/06/20 06:50:00;;;;;;;10.53;9.10;;;;;;;;;;10263294;28;20154;-76
2023/06/20 06:55:00;;;;;;;10.40;9.40;;;;;;;;;;10253928;28;20043;-74
2023/06/20 07:00:01;;;;;;;10.65;9.65;;;;;;;;;;10258548;28;20086;-76
2023/06/20 07:05:02;;;;;;;12.98;11.10;;;;;;;;;;10257913;28;20511;-75
2023/06/20 07:10:04;;;;;;;11.80;10.60;;;;;;;;;;10258065;28;20406;-76
2023/06/20 07:15:04;;;;;;;11.20;10.10;;;;;;;;;;10262466;28;20047;-75
2023/06/20 07:20:08;;;;;;;10.82;9.65;;;;;;;;;;10265858;28;21128;-75
2023/06/20 07:25:08;;;;;;;10.07;8.32;;;;;;;;;;10274063;28;20046;-74
2023/06/20 07:30:08;;;;;;;8.50;7.70;;;;;;;;;;10278226;28;20059;-75
2023/06/20 07:35:09;;;;;;;10.63;9.50;;;;;;;;;;10270329;28;20114;-76
2023/06/20 07:40:10;;;;;;;10.20;9.20;;;;;;;;;;10264612;28;20488;-76
2023/06/20 07:45:10;;;;;;;10.98;9.82;;;;;;;;;;10265033;28;20320;-73
2023/06/20 07:50:10;;;;;;;9.73;8.83;;;;;;;;;;10264305;28;20166;-73
2023/06/20 07:55:11;;;;;;;10.25;9.25;;;;;;;;;;10266499;28;20038;-74
2023/06/20 08:00:11;;;;;;;11.07;9.68;;;;;;;;;;10257089;28;20435;-76
2023/06/20 08:05:13;;;;;;;10.43;9.15;;;;;;;;;;10263167;28;20046;-75
2023/06/20 08:10:14;;;;;;;9.68;8.07;;;;;;;;;;10263018;28;20050;-75
2023/06/20 08:15:14;;;;;;;10.35;8.45;;;;;;;;;;10251297;28;20101;-75
2023/06/20 08:20:15;;;;;;;8.30;7.45;;;;;;;;;;10263473;28;20053;-75
2023/06/20 08:25:15;;;;;;;10.43;8.77;;;;;;;;;;10262783;28;20418;-75
2023/06/20 08:30:16;;;;;;;8.63;7.72;;;;;;;;;;10266042;28;20057;-74
2023/06/20 08:35:16;;;;;;;9.48;7.43;;;;;;;;;;10247165;28;20047;-75
2023/06/20 08:40:17;;;;;;;9.70;8.18;;;;;;;;;;10268307;28;20051;-76
2023/06/20 08:45:20;;;;;;;8.57;7.55;;;;;;;;;;10267187;28;20071;-75
2023/06/20 08:50:20;;;;;;;8.57;7.57;;;;;;;;;;10267740;28;20533;-76
2023/06/20 08:55:21;;;;;;;8.77;7.87;;;;;;;;;;10264892;28;20054;-79
2023/06/20 09:00:22;;;;;;;7.63;6.88;;;;;;;;;;10268269;28;20289;-74
2023/06/20 09:05:23;;;;;;;8.27;7.40;;;;;;;;;;10267266;28;20124;-74
2023/06/20 09:10:24;;;;;;;9.17;7.57;;;;;;;;;;10265505;28;20077;-74
2023/06/20 09:15:26;;;;;;;10.15;7.88;;;;;;;;;;10264955;28;20278;-74
2023/06/20 09:20:27;;;;;;;8.27;7.15;;;;;;;;;;10266475;28;20043;-78
2023/06/20 09:25:27;;;;;;;8.10;7.30;;;;;;;;;;10268845;28;20068;-75
2023/06/20 09:30:28;;;;;;;9.63;8.23;;;;;;;;;;10267795;28;20058;-75
2023/06/20 09:35:29;;;;;;;8.20;7.40;;;;;;;;;;10265966;28;20046;-76
2023/06/20 09:40:30;;;;;;;7.17;6.57;;;;;;;;;;10267889;28;20030;-76
2023/06/20 09:45:30;;;;;;;8.70;7.37;;;;;;;;;;10265012;28;20043;-75
2023/06/20 09:50:32;;;;;;;9.60;7.77;;;;;;;;;;10261224;28;20062;-75
2023/06/20 09:55:35;;;;;;;8.18;7.38;;;;;;;;;;10268386;28;20071;-75
2023/06/20 10:00:36;;;;;;;9.32;8.43;;;;;;;;;;10262643;28;20132;-75
2023/06/20 10:05:36;;;;;;;11.57;7.70;;;;;;;;;;10260321;28;20061;-77
2023/06/20 10:10:37;;;;;;;9.90;8.20;;;;;;;;;;10261273;28;20062;-76
2023/06/20 10:15:37;;;;;;;7.50;6.80;;;;;;;;;;10264915;28;20039;-75
2023/06/20 10:20:38;;;;;;;8.13;7.33;;;;;;;;;;10269208;28;20047;-76
2023/06/20 10:25:52;;;;;;;9.17;7.63;;;;;;;;;;10259554;28;20072;-77
2023/06/20 10:31:00;;;;;;;8.15;7.35;;;;;;;;;;10270183;28;20578;-76
2023/06/20 10:36:02;;;;;;;6.47;5.88;;;;;;;;;;10266613;28;20047;-76
2023/06/20 10:41:02;;;;;;;;;;;;;;;;;;10249082;28;20072;-76
2023/06/20 10:46:02;;;;;;;6.72;5.97;;;;;;;;;;10269916;28;19918;-76
2023/06/20 10:51:04;;;;;;;7.90;5.80;;;;;;;;;;10272732;28;20054;-76
2023/06/20 10:56:04;;;;;;;;;;;;;;;;;;10274953;28;20170;-76
2023/06/20 11:01:05;;;;;;;5.97;5.38;;;;;;;;;;10273970;28;19922;-76
2023/06/20 11:06:06;;;;;;;7.03;5.72;;;;;;;;;;10271660;28;20110;-77
2023/06/20 11:11:06;;;;;;;6.00;4.90;;;;;;;;;;10267951;28;20146;-77
2023/06/20 11:16:06;;;;;;;6.80;4.90;;;;;;;;;;10268921;28;20160;-76
2023/06/20 11:21:08;;;;;;;6.73;5.37;;;;;;;;;;10269290;28;20589;-77
2023/06/20 11:26:08;;;;;;;5.85;4.68;;;;;;;;;;10269255;28;20043;-76
2023/06/20 11:31:10;;;;;;;6.17;5.00;;;;;;;;;;10268603;28;20059;-76
2023/06/20 11:36:15;;;;;;;6.50;4.82;;;;;;;;;;10268729;28;20053;-75
2023/06/20 11:41:15;;;;;;;6.55;5.00;;;;;;;;;;10266726;28;20233;-77
2023/06/20 11:46:16;;;;;;;5.13;4.63;;;;;;;;;;10270996;28;20578;-77
2023/06/20 11:51:18;;;;;;;5.82;4.60;;;;;;;;;;10269991;28;20477;-76
2023/06/20 11:56:23;;;;;;;7.63;5.13;;;;;;;;;;10268443;28;20688;-76
2023/06/20 12:01:24;;;;;;;5.70;5.00;;;;;;;;;;10262924;28;21023;-77
2023/06/20 12:06:25;;;;;;;6.07;4.85;;;;;;;;;;10268075;28;20043;-76
2023/06/20 12:11:29;;;;;;;5.73;4.60;;;;;;;;;;10270156;28;20058;-76
2023/06/20 12:16:31;;;;;;;6.25;4.93;;;;;;;;;;10264499;28;20150;-76
2023/06/20 12:21:31;;;;;;;5.50;4.47;;;;;;;;;;10261988;28;20126;-76
2023/06/20 12:26:31;;;;;;;5.30;4.80;;;;;;;;;;10265405;28;20479;-76
2023/06/20 12:31:32;;;;;;;6.10;4.67;;;;;;;;;;10267182;28;20055;-76
2023/06/20 12:36:33;;;;;;;;;;;;;;;;;;10267662;28;20502;-77
2023/06/20 12:41:34;;;;;;;5.32;4.00;;;;;;;;;;10266138;28;19918;-77
2023/06/20 12:46:34;;;;;;;5.15;4.57;;;;;;;;;;10264438;28;20035;-77
2023/06/20 12:51:35;;;;;;;;;;;;;;;;;;10267654;28;20050;-76
2023/06/20 12:56:35;;;;;;;6.00;4.57;;;;;;;;;;10272249;28;19961;-75
2023/06/20 13:01:35;;;;;;;;;;;;;;;;;;10265882;28;20182;-77
2023/06/20 13:06:36;;;;;;;5.05;4.55;;;;;;;;;;10261813;28;19969;-76
2023/06/20 13:11:36;;;;;;;;;;;;;;;;;;10268997;28;20130;-76
2023/06/20 13:16:37;;;;;;;4.95;4.30;;;;;;;;;;10261145;28;19950;-76
2023/06/20 13:21:38;;;;;;;;;;;;;;;;;;10267246;28;20047;-77
2023/06/20 13:26:39;;;;;;;5.40;3.90;;;;;;;;;;10268454;28;19925;-77
2023/06/20 13:31:40;;;;;;;;;;;;;;;;;;10263666;28;20368;-76
2023/06/20 13:36:40;;;;;;;4.95;4.45;;;;;;;;;;10266600;28;19922;-77
2023/06/20 13:41:40;;;;;;;;;;;;;;;;;;10269284;28;20051;-77
2023/06/20 13:46:42;;;;;;;4.82;3.85;;;;;;;;;;10265101;28;19918;-77
2023/06/20 13:51:43;;;;;;;4.47;3.50;;;;;;;;;;10261299;28;20048;-76
2023/06/20 13:56:43;;;;;;;3.90;3.50;;;;;;;;;;10265748;28;20486;-77
2023/06/20 14:01:44;;;;;;;3.83;3.27;;;;;;;;;;10260995;28;20746;-78
2023/06/20 14:06:45;;;;;;;5.10;3.80;;;;;;;;;;10262681;28;20336;-77
2023/06/20 14:11:45;;;;;;;5.60;3.60;;;;;;;;;;10263008;28;20331;-77
2023/06/20 14:16:45;;;;;;;5.13;3.80;;;;;;;;;;10263475;28;20051;-77
2023/06/20 14:21:46;;;;;;;6.70;4.33;;;;;;;;;;10261959;28;20051;-79
2023/06/20 14:26:47;;;;;;;5.15;3.83;;;;;;;;;;10259595;28;20434;-79
2023/06/20 14:31:47;;;;;;;4.88;3.85;;;;;;;;;;10264370;28;20043;-76
2023/06/20 14:36:48;;;;;;;7.10;4.43;;;;;;;;;;10265237;28;20046;-80
2023/06/20 14:41:48;;;;;;;5.53;4.00;;;;;;;;;;10265489;28;20043;-78
2023/06/20 14:46:48;;;;;;;4.63;4.10;;;;;;;;;;10266058;28;20046;-78
2023/06/20 14:51:49;;;;;;;4.97;3.87;;;;;;;;;;10265560;28;20426;-77
2023/06/20 14:56:49;;;;;;;5.60;4.13;;;;;;;;;;10262168;28;20090;-77
2023/06/20 15:01:50;;;;;;;5.57;3.67;;;;;;;;;;10266206;28;20047;-78
2023/06/20 15:06:50;;;;;;;5.80;4.10;;;;;;;;;;10269160;28;20320;-78
2023/06/20 15:11:50;;;;;;;7.45;3.88;;;;;;;;;;10265887;28;20070;-78
2023/06/20 15:16:51;;;;;;;5.72;3.88;;;;;;;;;;10270244;28;20047;-78
2023/06/20 15:21:51;;;;;;;8.53;5.10;;;;;;;;;;10273471;28;20505;-77
2023/06/20 15:26:52;;;;;;;8.03;4.30;;;;;;;;;;10278005;28;20046;-78
2023/06/20 15:31:52;;;;;;;7.63;4.80;;;;;;;;;;10267561;28;20051;-78
2023/06/20 15:36:52;;;;;;;6.50;4.27;;;;;;;;;;10270403;28;20047;-77
2023/06/20 15:41:53;;;;;;;7.87;4.20;;;;;;;;;;10276943;28;20085;-80
2023/06/20 15:46:54;;;;;;;10.77;4.50;;;;;;;;;;10307761;28;20069;-90
2023/06/20 15:51:54;;;;;;;7.72;4.28;;;;;;;;;;10289057;28;20318;-85
2023/06/20 15:56:55;;;;;;;6.85;4.35;;;;;;;;;;10277476;28;20122;-81
2023/06/20 16:01:55;;;;;;;8.47;5.00;;;;;;;;;;10278895;28;20388;-80
2023/06/20 16:06:56;;;;;;;6.40;4.35;;;;;;;;;;10276887;28;20413;-80
2023/06/20 16:11:57;;;;;;;7.72;4.40;;;;;;;;;;10276755;28;20053;-80
2023/06/20 16:16:57;;;;;;;9.70;4.57;;;;;;;;;;10268851;28;20047;-79
2023/06/20 16:21:57;;;;;;;8.10;4.33;;;;;;;;;;10271428;28;20085;-81
2023/06/20 16:26:58;;;;;;;7.37;4.83;;;;;;;;;;10266751;28;20066;-79
2023/06/20 16:31:58;;;;;;;;;;;;;;;;;;10268335;28;20055;-78
2023/06/20 16:36:58;;;;;;;11.25;4.95;;;;;;;;;;10274580;28;19941;-79
2023/06/20 16:41:59;;;;;;;;;;;;;;;;;;10273429;28;20109;-79
2023/06/20 16:46:59;;;;;;;6.82;5.40;;;;;;;;;;10276243;28;19968;-80
2023/06/20 16:52:00;;;;;;;10.30;5.23;;;;;;;;;;10277187;28;20604;-80
2023/06/20 16:57:01;;;;;;;7.47;5.35;;;;;;;;;;10274316;28;20137;-79
2023/06/20 17:02:05;;;;;;;6.70;4.87;;;;;;;;;;10285496;28;20066;-80
2023/06/20 17:07:06;;;;;;;15.88;10.45;;;;;;;;;;10274204;28;20059;-79
2023/06/20 17:12:07;;;;;;;8.98;5.82;;;;;;;;;;10274887;28;20078;-77
2023/06/20 17:17:08;;;;;;;9.40;5.18;;;;;;;;;;10267096;28;20110;-81
2023/06/20 17:22:08;;;;;;;9.00;4.93;;;;;;;;;;10271045;28;20046;-77
2023/06/20 17:27:09;;;;;;;6.47;4.10;;;;;;;;;;10275685;28;20490;-82
2023/06/20 17:32:10;;;;;;;8.85;5.55;;;;;;;;;;10282442;28;20058;-80
2023/06/20 17:37:10;;;;;;;9.70;5.03;;;;;;;;;;10265232;28;21284;-81
2023/06/20 17:42:10;;;;;;;10.80;5.20;;;;;;;;;;10267567;28;20051;-81
2023/06/20 17:47:11;;;;;;;7.23;4.90;;;;;;;;;;10270217;28;20047;-82
2023/06/20 17:52:11;;;;;;;7.93;4.83;;;;;;;;;;10265222;28;20055;-78
2023/06/20 17:57:11;;;;;;;9.57;5.90;;;;;;;;;;10270866;28;20046;-83
2023/06/20 18:02:15;;;;;;;9.17;5.37;;;;;;;;;;10264663;28;20462;-79
2023/06/20 18:07:15;;;;;;;10.15;5.13;;;;;;;;;;10263870;28;20052;-77
2023/06/20 18:12:16;;;;;;;11.80;5.03;;;;;;;;;;10259227;28;20069;-77
2023/06/20 18:17:16;;;;;;;8.97;5.03;;;;;;;;;;10267723;28;20581;-79
2023/06/20 18:22:16;;;;;;;10.63;5.50;;;;;;;;;;10268750;28;20603;-77
2023/06/20 18:27:17;;;;;;;8.93;5.53;;;;;;;;;;10267418;28;20494;-80
2023/06/20 18:32:18;;;;;;;8.40;5.07;;;;;;;;;;10265832;28;20517;-77
2023/06/20 18:37:18;;;;;;;7.30;5.50;;;;;;;;;;10265514;28;20446;-81
2023/06/20 18:42:18;;;;;;;8.67;6.20;;;;;;;;;;10266003;28;20049;-79
2023/06/20 18:47:20;;;;;;;9.10;5.03;;;;;;;;;;10260380;28;20129;-80
2023/06/20 18:52:20;;;;;;;7.37;5.40;;;;;;;;;;10261678;28;20055;-82
2023/06/20 18:57:20;;;;;;;6.80;4.57;;;;;;;;;;10263491;28;20145;-81
2023/06/20 19:02:21;;;;;;;10.93;5.10;;;;;;;;;;10260733;28;20098;-79
2023/06/20 19:07:21;;;;;;;10.00;6.13;;;;;;;;;;10257940;28;20554;-79
2023/06/20 19:12:25;;;;;;;8.43;5.97;;;;;;;;;;10259261;28;20046;-79
2023/06/20 19:17:26;;;;;;;9.77;5.47;;;;;;;;;;10257158;28;20121;-81
2023/06/20 19:22:27;;;;;;;9.38;6.10;;;;;;;;;;10256956;28;20039;-79
2023/06/20 19:27:27;;;;;;;11.03;6.00;;;;;;;;;;10262092;28;20089;-80
2023/06/20 19:32:27;;;;;;;9.47;5.80;;;;;;;;;;10263069;28;20046;-79
2023/06/20 19:37:28;;;;;;;10.30;6.17;;;;;;;;;;10272329;28;20053;-80
2023/06/20 19:42:29;;;;;;;7.93;5.30;;;;;;;;;;10266491;28;20083;-78
2023/06/20 19:47:29;;;;;;;6.75;5.25;;;;;;;;;;10264408;28;20058;-77
2023/06/20 19:52:30;;;;;;;8.43;5.50;;;;;;;;;;10263634;28;20054;-77
2023/06/20 19:57:31;;;;;;;11.80;5.83;;;;;;;;;;10256243;28;20059;-79
2023/06/20 20:02:31;;;;;;;8.25;5.05;;;;;;;;;;10263265;28;20050;-80
2023/06/20 20:07:31;;;;;;;12.17;6.00;;;;;;;;;;10263772;28;20058;-80
2023/06/20 20:12:37;;;;;;;9.27;5.80;;;;;;;;;;10260918;28;20078;-79
2023/06/20 20:17:38;;;;;;;6.55;5.50;;;;;;;;;;10264526;28;20042;-80
2023/06/20 20:22:39;;;;;;;8.70;5.63;;;;;;;;;;10271693;28;20774;-81
2023/06/20 20:27:40;;;;;;;9.30;5.53;;;;;;;;;;10267111;28;20058;-82
2023/06/20 20:32:42;;;;;;;10.57;5.57;;;;;;;;;;10274707;28;20051;-80
2023/06/20 20:37:42;;;;;;;;;;;;;;;;;;10277798;28;20061;-78
2023/06/20 20:42:44;;;;;;;10.27;5.38;;;;;;;;;;10290231;28;19921;-78
2023/06/20 20:47:44;;;;;;;10.07;5.05;;;;;;;;;;10291575;28;20082;-84
2023/06/20 20:52:45;;;;;;;7.80;4.93;;;;;;;;;;10284102;28;20291;-84
2023/06/20 20:57:45;;;;;;;8.80;4.57;;;;;;;;;;10273250;28;20370;-84
2023/06/20 21:02:46;;;;;;;9.40;5.03;;;;;;;;;;10255004;28;20058;-81
2023/06/20 21:07:49;;;;;;;11.03;6.47;;;;;;;;;;10266145;28;20089;-78
2023/06/20 21:12:50;;;;;;;7.88;4.85;;;;;;;;;;10269688;28;20112;-80
2023/06/20 21:17:50;;;;;;;7.80;4.03;;;;;;;;;;10266715;28;20867;-81
2023/06/20 21:22:53;;;;;;;8.60;4.72;;;;;;;;;;10264579;28;20644;-83
2023/06/20 21:27:54;;;;;;;8.33;4.33;;;;;;;;;;10270430;28;20059;-82
2023/06/20 21:32:54;;;;;;;7.13;3.90;;;;;;;;;;10269125;28;20691;-80
2023/06/20 21:37:54;;;;;;;8.73;4.10;;;;;;;;;;10268555;28;20058;-77
2023/06/20 21:42:56;;;;;;;9.53;4.13;;;;;;;;;;10274893;28;20145;-79
2023/06/20 21:47:59;;;;;;;;;;;;;;;;;;10290126;28;20054;-79
2023/06/20 21:53:06;;;;;;;9.38;4.90;;;;;;;;;;10264926;28;20067;-77
2023/06/20 21:58:06;;;;;;;8.33;3.97;;;;;;;;;;10273827;28;20047;-80
2023/06/20 22:03:09;;;;;;;6.23;3.87;;;;;;;;;;10273155;28;20043;-81
2023/06/20 22:08:09;;;;;;;5.57;2.63;;;;;;;;;;10239710;28;1172288;-82
2023/06/20 22:13:12;;;;;;;3.27;1.90;;;;;;;;;;10272376;28;20042;-78
2023/06/20 22:18:13;;;;;;;3.88;1.80;;;;;;;;;;10269906;28;20046;-79
2023/06/20 22:23:14;;;;;;;2.17;1.60;;;;;;;;;;10274939;28;20082;-79
2023/06/20 22:28:14;;;;;;;2.80;1.77;;;;;;;;;;10278885;28;20051;-78
2023/06/20 22:33:17;;;;;;;4.37;1.80;;;;;;;;;;10276947;28;20312;-79
2023/06/20 22:38:18;;;;;;;4.72;1.90;;;;;;;;;;10279611;28;20073;-79
2023/06/20 22:43:19;;;;;;;4.57;1.65;;;;;;;;;;10280116;28;20619;-81
2023/06/20 22:48:19;;;;;;;3.67;1.77;;;;;;;;;;10275739;28;20050;-82
2023/06/20 22:53:19;;;;;;;3.13;1.60;;;;;;;;;;10277662;28;20368;-83
2023/06/20 22:58:20;;;;;;;2.83;2.05;;;;;;;;;;10280685;28;20290;-83
2023/06/20 23:03:20;;;;;;;3.60;1.90;;;;;;;;;;10270717;28;20050;-80
2023/06/20 23:08:21;;;;;;;3.67;2.00;;;;;;;;;;10267597;28;20077;-82
2023/06/20 23:13:21;;;;;;;2.90;1.90;;;;;;;;;;10271050;28;20050;-81
2023/06/20 23:18:22;;;;;;;2.47;1.60;;;;;;;;;;10260310;28;20909;-79
2023/06/20 23:23:25;;;;;;;2.83;2.20;;;;;;;;;;10260784;28;20109;-81
2023/06/20 23:28:26;;;;;;;3.25;2.20;;;;;;;;;;10263123;28;20050;-85
2023/06/20 23:33:31;;;;;;;3.28;2.47;;;;;;;;;;10262782;28;20483;-81
2023/06/20 23:38:31;;;;;;;3.97;2.47;;;;;;;;;;10258919;28;20043;-83
2023/06/20 23:43:33;;;;;;;3.27;2.17;;;;;;;;;;10263564;28;20038;-81
2023/06/20 23:48:34;;;;;;;2.65;1.83;;;;;;;;;;10256505;28;20318;-80
2023/06/20 23:53:34;;;;;;;3.40;2.00;;;;;;;;;;10261659;28;20138;-81
2023/06/20 23:58:35;;;;;;;2.80;2.27;;;;;;;;;;10260120;28;20859;-80
